Terminal Aerodrome Forecast
Issued by NWS

Home | Current Version | Previous Version | Text Only | Print | Product List | Glossary On
Versions: 1 2 3 4 5 6 7 8 9 10 11 12 13 14 15 16 17 18 19 20 21 22 23 24 25 26 27 28 29 30 31
074
FTUS46 KOTX 261945 AAB
TAFCOE
TAF AMD
KCOE 261945Z 2620/2718 01013KT P6SM VCTS FEW035 SCT050CB BKN120
     FM262030 VRB05KT P6SM FEW060 SCT080 SCT150
     FM262300 27005KT P6SM VCSH SCT080 SCT150
     FM270500 10004KT P6SM FEW100 FEW200
      AMD LTD TO CLD VIS AND WIND=

USA.gov is the U.S. government's official web portal to all federal, state and local government web resources and services.